Time;durP1;ratioP1;P1;durP2;ratioP2;P2;SDS_P1;SDS_P2;PMS_P1;PMS_P2;Temp;Humidity;BMP_temperature;BMP_pressure;BME280_temperature;BME280_humidity;BME280_pressure;Samples;Min_cycle;Max_cycle;Signal;HPM_P1;HPM_P2
2022/04/25 00:01:19;;;;;;;3.75;1.90;;;;;;;5.13;82.51;101114.69;5050956;28;20639;-47
2022/04/25 00:03:44;;;;;;;8.07;2.53;;;;;;;5.19;81.89;101122.59;5050897;28;20183;-46
2022/04/25 00:06:10;;;;;;;2.38;1.92;;;;;;;5.09;82.26;101120.91;5050048;28;20595;-47
2022/04/25 00:08:36;;;;;;;4.70;2.13;;;;;;;5.12;82.42;101120.91;5050838;28;20203;-46
2022/04/25 00:11:02;;;;;;;5.75;2.13;;;;;;;5.22;82.23;101116.34;5051327;28;20316;-46
2022/04/25 00:13:28;;;;;;;7.65;2.67;;;;;;;5.10;82.26;101115.59;5050295;28;20171;-47
2022/04/25 00:15:54;;;;;;;5.25;2.00;;;;;;;5.14;82.64;101124.41;5050259;28;20225;-46
2022/04/25 00:18:21;;;;;;;6.03;2.60;;;;;;;5.21;82.64;101120.78;5050838;28;20257;-46
2022/04/25 00:20:46;;;;;;;4.30;2.08;;;;;;;5.16;82.82;101134.13;5050611;28;20214;-47
2022/04/25 00:23:11;;;;;;;6.78;2.17;;;;;;;5.04;83.29;101133.38;5050359;28;20638;-47
2022/04/25 00:25:37;;;;;;;5.07;2.40;;;;;;;5.02;83.14;101130.72;5050584;28;20191;-47
2022/04/25 00:28:04;;;;;;;6.45;2.10;;;;;;;5.04;83.59;101126.28;5050041;28;20293;-46
2022/04/25 00:30:30;;;;;;;3.58;2.00;;;;;;;5.07;83.26;101122.72;5050168;28;20175;-46
2022/04/25 00:32:57;;;;;;;2.72;2.13;;;;;;;5.07;83.20;101128.91;5050984;28;20258;-48
2022/04/25 00:35:22;;;;;;;6.10;2.10;;;;;;;5.17;82.78;101121.72;5048776;28;20262;-46
2022/04/25 00:37:51;;;;;;;8.38;2.72;;;;;;;5.09;83.14;101127.09;5050603;28;20214;-47
2022/04/25 00:40:21;;;;;;;4.68;2.10;;;;;;;5.05;82.98;101135.13;5050097;28;20198;-48
2022/04/25 00:42:48;;;;;;;4.55;2.08;;;;;;;5.18;82.75;101133.22;5050066;28;20286;-47
2022/04/25 00:45:14;;;;;;;5.00;2.28;;;;;;;5.08;82.92;101132.44;5049564;28;20183;-47
2022/04/25 00:47:41;;;;;;;6.05;2.83;;;;;;;5.09;83.41;101120.91;5042750;28;20207;-46
2022/04/25 00:50:08;;;;;;;5.15;2.08;;;;;;;5.12;83.35;101129.75;5030294;28;20194;-48
2022/04/25 00:52:34;;;;;;;3.67;2.03;;;;;;;5.09;83.26;101121.78;5029012;28;20207;-46
2022/04/25 00:55:01;;;;;;;8.35;2.20;;;;;;;5.02;83.71;101127.19;5029932;28;20187;-48
2022/04/25 00:57:28;;;;;;;3.92;1.98;;;;;;;5.03;84.17;101123.63;5029801;28;20180;-47
2022/04/25 00:59:56;;;;;;;3.70;2.00;;;;;;;5.02;84.12;101121.88;5030030;28;20236;-46
2022/04/25 01:02:22;;;;;;;6.35;2.35;;;;;;;4.98;83.92;101117.50;5030432;28;20226;-46
2022/04/25 01:04:47;;;;;;;2.83;2.17;;;;;;;4.94;84.33;101117.53;5029820;28;20643;-49
2022/04/25 01:07:14;;;;;;;6.75;2.63;;;;;;;4.92;84.48;101124.66;5030128;28;20191;-48
2022/04/25 01:09:39;;;;;;;4.82;2.30;;;;;;;4.90;84.46;101118.47;5029986;28;20304;-46
2022/04/25 01:12:05;;;;;;;3.47;2.10;;;;;;;4.89;84.42;101114.03;5030000;28;20263;-47
2022/04/25 01:14:31;;;;;;;4.32;2.10;;;;;;;4.83;84.41;101115.88;5029784;28;20279;-47
2022/04/25 01:16:56;;;;;;;4.15;2.40;;;;;;;4.82;84.66;101124.75;5029850;28;20184;-46
2022/04/25 01:19:24;;;;;;;4.05;2.22;;;;;;;4.79;85.20;101117.69;5033120;28;20721;-47
2022/04/25 01:21:59;;;;;;;3.22;2.25;;;;;;;4.77;85.22;101127.44;5066975;28;20258;-47
2022/04/25 01:27:16;;;;;;;5.07;2.95;;;;;;;4.66;86.22;101129.34;5053771;28;20789;-47
2022/04/25 01:29:54;;;;;;;4.60;2.40;;;;;;;4.65;86.75;101125.78;5038825;28;20230;-46
2022/04/25 01:32:24;;;;;;;5.28;2.40;;;;;;;4.60;87.44;101134.69;5046290;28;20179;-47
2022/04/25 01:34:50;;;;;;;7.70;2.28;;;;;;;4.57;87.88;101122.34;5053030;28;20559;-47
2022/04/25 01:37:17;;;;;;;5.25;2.45;;;;;;;4.56;88.66;101135.59;5053836;28;20263;-46
2022/04/25 01:39:48;;;;;;;4.72;2.17;;;;;;;4.61;89.27;101125.81;5053646;28;20744;-46
2022/04/25 01:42:15;;;;;;;9.65;3.00;;;;;;;4.58;89.45;101120.56;5053967;28;20195;-48
2022/04/25 01:44:40;;;;;;;5.25;2.00;;;;;;;4.50;89.92;101137.44;5052002;28;20193;-48
2022/04/25 01:47:07;;;;;;;3.88;2.45;;;;;;;4.52;89.70;101127.66;5052737;28;20180;-47
2022/04/25 01:49:33;;;;;;;6.13;2.67;;;;;;;4.49;90.06;101129.47;5053640;28;20196;-46
2022/04/25 01:52:09;;;;;;;5.38;2.45;;;;;;;4.50;89.82;101132.13;5052838;28;20688;-48
2022/04/25 01:54:34;;;;;;;6.70;2.40;;;;;;;4.53;89.53;101137.38;5053497;28;20213;-49
2022/04/25 01:57:02;;;;;;;5.90;2.47;;;;;;;4.54;88.97;101127.66;5052193;28;20210;-48
2022/04/25 01:59:30;;;;;;;3.15;2.30;;;;;;;4.55;89.03;101132.06;5053136;28;20246;-47
2022/04/25 02:01:56;;;;;;;4.18;2.20;;;;;;;4.50;89.03;101128.56;5053144;28;20670;-44
2022/04/25 02:04:22;;;;;;;7.13;2.33;;;;;;;4.49;88.62;101132.13;5053349;28;20230;-45
2022/04/25 02:06:48;;;;;;;3.22;2.22;;;;;;;4.43;88.67;101134.81;5052492;28;20258;-45
2022/04/25 02:09:13;;;;;;;4.93;2.35;;;;;;;4.44;88.62;101148.09;5052707;28;20709;-46
2022/04/25 02:11:39;;;;;;;3.05;2.33;;;;;;;4.43;88.63;101129.50;5052274;28;20263;-46
2022/04/25 02:14:05;;;;;;;4.78;2.13;;;;;;;4.39;88.52;101125.13;5052971;28;20183;-46
2022/04/25 02:16:30;;;;;;;6.13;2.13;;;;;;;4.41;88.75;101131.28;5052548;28;20291;-46
2022/04/25 02:18:56;;;;;;;5.63;2.50;;;;;;;4.29;88.85;101132.28;5052815;28;20206;-45
2022/04/25 02:21:22;;;;;;;3.20;1.95;;;;;;;4.41;89.04;101126.88;5052123;28;20207;-45
2022/04/25 02:23:48;;;;;;;3.78;2.10;;;;;;;4.40;88.74;101130.44;5052618;28;20305;-47
2022/04/25 02:26:14;;;;;;;4.25;2.50;;;;;;;4.47;88.30;101110.91;5052315;28;20655;-45
2022/04/25 02:28:39;;;;;;;5.25;2.40;;;;;;;4.46;87.89;101132.13;5052380;28;20349;-47
2022/04/25 02:31:06;;;;;;;2.40;2.20;;;;;;;4.45;87.96;101130.38;5052526;28;20229;-47
2022/04/25 02:33:32;;;;;;;3.95;2.30;;;;;;;4.47;88.19;101123.28;5052361;28;20250;-46
2022/04/25 02:35:59;;;;;;;4.40;2.33;;;;;;;4.46;87.80;101135.69;5052498;28;20603;-46
2022/04/25 02:38:24;;;;;;;2.95;2.65;;;;;;;4.44;87.52;101126.84;5052160;28;20203;-46
2022/04/25 02:41:04;;;;;;;2.45;2.25;;;;;;;4.43;87.53;101138.34;5052407;28;20712;-46
2022/04/25 02:43:34;;;;;;;5.70;2.13;;;;;;;4.35;87.46;101132.22;5052117;28;20198;-46
2022/04/25 02:46:01;;;;;;;6.68;2.67;;;;;;;4.32;87.50;101121.63;5052368;28;20286;-47
2022/04/25 02:48:27;;;;;;;5.82;2.78;;;;;;;4.33;87.71;101126.06;5038287;28;20204;-46
2022/04/25 02:50:52;;;;;;;3.22;2.17;;;;;;;4.32;87.39;101138.44;5032555;28;20177;-45
2022/04/25 02:53:18;;;;;;;3.65;2.28;;;;;;;4.34;87.67;101130.47;5031834;28;20224;-48
2022/04/25 02:55:43;;;;;;;4.40;2.72;;;;;;;4.41;87.58;101137.47;5031996;28;20226;-50
2022/04/25 02:58:09;;;;;;;4.10;2.30;;;;;;;4.41;87.45;101131.28;5032121;28;20207;-49
2022/04/25 03:00:34;;;;;;;3.75;2.50;;;;;;;4.37;87.30;101146.34;5032102;28;20297;-49
2022/04/25 03:03:00;;;;;;;3.03;2.28;;;;;;;4.33;87.17;101134.03;5032395;28;20342;-51
2022/04/25 03:05:26;;;;;;;6.78;2.25;;;;;;;4.23;87.68;101140.28;5031713;28;20284;-52
2022/04/25 03:07:51;;;;;;;2.70;2.50;;;;;;;4.23;88.04;101134.97;5031904;28;20548;-50
2022/04/25 03:10:17;;;;;;;3.55;2.40;;;;;;;4.26;87.86;101141.16;5031925;28;20527;-48
2022/04/25 03:12:42;;;;;;;3.38;2.42;;;;;;;4.29;87.97;101132.28;5032204;28;20191;-50
2022/04/25 03:15:08;;;;;;;3.45;2.35;;;;;;;4.20;88.09;101138.53;5031316;28;20175;-49
2022/04/25 03:17:33;;;;;;;4.70;2.92;;;;;;;4.22;88.20;101139.41;5032154;28;20180;-49
2022/04/25 03:19:59;;;;;;;3.45;2.40;;;;;;;4.18;88.12;101147.41;5034499;28;20724;-51
2022/04/25 03:22:25;;;;;;;4.55;2.30;;;;;;;4.22;88.54;101147.38;5049066;28;20677;-52
2022/04/25 03:24:50;;;;;;;3.22;2.33;;;;;;;4.22;88.00;101147.38;5051431;28;20210;-51
2022/04/25 03:27:16;;;;;;;6.80;2.90;;;;;;;4.10;88.33;101148.31;5051037;28;20631;-49
2022/04/25 03:29:41;;;;;;;3.65;2.45;;;;;;;4.08;88.36;101144.78;5051373;28;20189;-51
2022/04/25 03:32:07;;;;;;;3.10;2.60;;;;;;;4.01;88.49;101151.03;5051101;28;20186;-51
2022/04/25 03:34:34;;;;;;;6.68;4.18;;;;;;;3.98;88.83;101151.06;5051235;28;20262;-50
2022/04/25 03:37:00;;;;;;;3.88;2.88;;;;;;;3.99;89.00;101155.44;5046747;28;21180;-49
2022/04/25 03:39:25;;;;;;;3.33;2.63;;;;;;;3.89;89.37;101161.69;5044680;28;20218;-52
2022/04/25 03:41:51;;;;;;;3.75;2.33;;;;;;;3.89;89.30;101156.38;5050120;28;20183;-49
2022/04/25 03:44:16;;;;;;;3.80;2.42;;;;;;;3.99;89.45;101160.75;5051159;28;20219;-50
2022/04/25 03:46:42;;;;;;;3.60;2.45;;;;;;;3.96;89.22;101162.53;5050476;28;20622;-51
2022/04/25 03:49:08;;;;;;;4.78;2.40;;;;;;;3.84;89.13;101161.72;5051278;28;20199;-50
2022/04/25 03:51:33;;;;;;;3.78;2.42;;;;;;;3.84;89.35;101158.19;5050861;28;20190;-48
2022/04/25 03:53:58;;;;;;;2.90;2.70;;;;;;;3.85;89.34;101166.16;5050580;28;20249;-50
2022/04/25 03:59:08;;;;;;;2.95;2.25;;;;;;;3.77;89.18;101156.47;5050439;28;20195;-50
2022/04/25 04:01:35;;;;;;;4.45;2.75;;;;;;;3.75;89.42;101163.53;5050759;28;20187;-49
2022/04/25 04:04:04;;;;;;;2.88;2.38;;;;;;;3.75;89.41;101169.72;5050619;28;20237;-50
2022/04/25 04:06:31;;;;;;;4.55;2.50;;;;;;;3.67;89.38;101161.81;5050209;28;20175;-48
2022/04/25 04:08:57;;;;;;;2.92;2.08;;;;;;;3.55;89.28;101172.47;5050110;28;20187;-49
2022/04/25 04:11:22;;;;;;;3.55;2.42;;;;;;;3.44;89.95;101169.84;5050664;28;20524;-51
2022/04/25 04:13:47;;;;;;;3.97;2.40;;;;;;;3.36;90.31;101166.34;5050686;28;20642;-49
2022/04/25 04:16:13;;;;;;;2.85;2.33;;;;;;;3.40;90.83;101180.47;5050230;28;20232;-48
2022/04/25 04:18:41;;;;;;;4.18;2.28;;;;;;;3.42;90.90;101176.03;5049956;28;20631;-51
2022/04/25 04:21:09;;;;;;;4.00;2.20;;;;;;;3.46;90.83;101183.09;5050486;28;20207;-50
2022/04/25 04:23:35;;;;;;;2.85;2.40;;;;;;;3.48;90.87;101170.72;5050608;28;20220;-49
2022/04/25 04:26:00;;;;;;;4.40;2.65;;;;;;;3.47;90.94;101177.78;5050022;28;20282;-49
2022/04/25 04:28:26;;;;;;;3.78;2.80;;;;;;;3.40;90.89;101181.34;5049015;28;20224;-48
2022/04/25 04:30:51;;;;;;;3.80;2.53;;;;;;;3.42;91.11;101179.56;5050098;28;20236;-51
2022/04/25 04:33:17;;;;;;;4.25;2.33;;;;;;;3.39;91.14;101182.22;5050260;28;20178;-49
2022/04/25 04:38:27;;;;;;;2.45;2.17;;;;;;;3.50;91.29;101182.19;5050304;28;20569;-49
2022/04/25 04:40:52;;;;;;;3.42;2.33;;;;;;;3.67;90.93;101187.41;5050189;28;20662;-48
2022/04/25 04:43:17;;;;;;;3.70;2.60;;;;;;;4.22;91.06;101186.25;5050400;28;20175;-49
2022/04/25 04:45:44;;;;;;;3.40;2.70;;;;;;;4.68;90.02;101197.44;5049675;28;20187;-48
2022/04/25 04:48:09;;;;;;;4.78;2.78;;;;;;;5.13;88.85;101183.72;5050118;28;20194;-48
2022/04/25 04:50:34;;;;;;;3.53;2.33;;;;;;;5.27;86.70;101187.13;5050116;28;20173;-49
2022/04/25 04:53:00;;;;;;;3.17;2.15;;;;;;;5.59;85.47;101188.53;5048935;28;20184;-50
2022/04/25 04:55:26;;;;;;;4.03;2.70;;;;;;;5.86;83.77;101199.72;5050027;28;20175;-51
2022/04/25 04:57:53;;;;;;;2.92;2.22;;;;;;;5.98;82.68;101197.81;5049715;28;20657;-48
2022/04/25 05:00:19;;;;;;;3.70;2.15;;;;;;;6.45;81.92;101198.06;5050058;28;20276;-50
2022/04/25 05:02:45;;;;;;;2.40;2.20;;;;;;;6.71;80.21;101200.31;5049781;28;20179;-50
2022/04/25 05:05:12;;;;;;;2.63;2.30;;;;;;;6.52;78.90;101193.53;5048654;28;20175;-48
2022/04/25 05:07:37;;;;;;;3.92;2.10;;;;;;;6.60;78.41;101204.91;5050383;28;20171;-48
2022/04/25 05:10:04;;;;;;;2.78;2.00;;;;;;;6.69;77.97;101193.22;5049798;28;20206;-49
2022/04/25 05:12:30;;;;;;;2.90;2.17;;;;;;;6.75;78.02;101198.47;5050633;28;20167;-48
2022/04/25 05:14:56;;;;;;;3.95;1.70;;;;;;;6.84;77.24;101192.09;5049995;28;20258;-49
2022/04/25 05:17:22;;;;;;;4.05;2.13;;;;;;;6.95;77.44;101198.13;5049662;28;20354;-49
2022/04/25 05:19:48;;;;;;;4.72;2.40;;;;;;;6.85;77.36;101197.41;5049903;28;20218;-49
2022/04/25 05:22:13;;;;;;;3.80;2.15;;;;;;;6.33;77.82;101204.44;5049935;28;20638;-47
2022/04/25 05:24:39;;;;;;;2.83;2.15;;;;;;;6.82;78.45;101208.09;5049632;28;20172;-50
2022/04/25 05:27:04;;;;;;;4.57;1.95;;;;;;;6.77;78.24;101210.84;5050007;28;20577;-49
2022/04/25 05:29:30;;;;;;;2.05;1.80;;;;;;;6.65;78.23;101220.81;5064537;28;20681;-49
2022/04/25 05:31:56;;;;;;;3.10;1.83;;;;;;;7.20;78.06;101210.09;5050540;28;20175;-47
2022/04/25 05:34:21;;;;;;;1.90;1.80;;;;;;;7.34;76.23;101212.50;5031988;28;20183;-47
2022/04/25 05:36:46;;;;;;;3.22;2.10;;;;;;;7.29;75.60;101211.72;5049383;28;20180;-49
2022/04/25 05:39:12;;;;;;;2.08;1.88;;;;;;;7.08;76.44;101210.31;5049357;28;20474;-48
2022/04/25 05:41:41;;;;;;;2.90;1.70;;;;;;;6.86;76.56;101217.78;5049746;28;20221;-49
2022/04/25 05:44:09;;;;;;;2.83;1.75;;;;;;;6.99;75.84;101208.69;5049396;28;20262;-50
2022/04/25 05:46:34;;;;;;;1.95;1.50;;;;;;;7.26;75.39;101209.13;5049322;28;20183;-47
2022/04/25 05:51:59;;;;;;;2.30;2.10;;;;;;;7.61;73.94;101204.91;5029584;28;20290;-48
2022/04/25 05:54:26;;;;;;;3.35;2.08;;;;;;;7.26;73.24;101217.13;5029739;28;20195;-48
2022/04/25 05:56:52;;;;;;;1.95;1.75;;;;;;;7.43;73.50;101220.34;5028965;28;20254;-48
2022/04/25 05:59:18;;;;;;;2.35;1.52;;;;;;;7.73;73.19;101217.09;5029688;28;20200;-48
2022/04/25 06:01:44;;;;;;;4.43;2.10;;;;;;;7.49;72.49;101213.13;5029927;28;20219;-48
2022/04/25 06:04:09;;;;;;;2.05;1.70;;;;;;;7.67;72.82;101214.56;5030725;28;20211;-48
2022/04/25 06:06:34;;;;;;;2.63;1.85;;;;;;;8.16;71.88;101225.09;5032361;28;20168;-49
2022/04/25 06:09:00;;;;;;;1.95;1.73;;;;;;;7.88;71.61;101229.25;5033197;28;20558;-49
2022/04/25 06:11:26;;;;;;;1.95;1.75;;;;;;;8.07;72.29;101229.72;5032930;28;20164;-48
2022/04/25 06:13:53;;;;;;;2.60;1.77;;;;;;;7.85;71.51;101224.88;5032859;28;20231;-48
2022/04/25 06:16:18;;;;;;;2.03;1.80;;;;;;;8.43;70.63;101226.28;5032737;28;20213;-49
2022/04/25 06:18:43;;;;;;;1.77;1.67;;;;;;;8.70;69.60;101223.00;5032914;28;20242;-48
2022/04/25 06:21:09;;;;;;;4.60;1.80;;;;;;;8.43;70.35;101222.75;5031642;28;20212;-50
2022/04/25 06:23:34;;;;;;;2.17;1.90;;;;;;;8.41;69.83;101228.09;5032887;28;20166;-48
2022/04/25 06:26:00;;;;;;;2.05;1.80;;;;;;;8.47;69.40;101237.78;5032375;28;20176;-47
2022/04/25 06:28:25;;;;;;;2.88;1.67;;;;;;;7.99;70.38;101238.78;5032660;28;20187;-49
2022/04/25 06:30:52;;;;;;;2.22;1.83;;;;;;;7.96;70.25;101229.94;5033016;28;20306;-50
2022/04/25 06:33:17;;;;;;;3.95;1.73;;;;;;;8.17;69.53;101231.28;5032847;28;20257;-48
2022/04/25 06:35:44;;;;;;;4.00;1.92;;;;;;;8.23;69.50;101240.03;5032653;28;20191;-48
2022/04/25 06:38:09;;;;;;;2.72;1.60;;;;;;;8.23;69.57;101226.69;5032323;28;20689;-48
2022/04/25 06:40:35;;;;;;;4.20;1.85;;;;;;;8.32;68.82;101238.97;5032506;28;20206;-50
2022/04/25 06:43:00;;;;;;;3.50;1.85;;;;;;;8.60;67.70;101239.25;5032424;28;20171;-51
2022/04/25 06:45:26;;;;;;;3.03;2.20;;;;;;;8.51;68.74;101236.81;5032407;28;20213;-50
2022/04/25 06:47:52;;;;;;;1.98;1.77;;;;;;;8.74;67.25;101227.34;5032068;28;20225;-49
2022/04/25 06:50:18;;;;;;;3.00;2.03;;;;;;;8.21;68.38;101244.53;5032366;28;20554;-48
2022/04/25 06:52:44;;;;;;;2.33;1.88;;;;;;;8.66;69.01;101239.13;5031063;28;20194;-49
2022/04/25 06:55:10;;;;;;;3.10;2.17;;;;;;;9.17;67.73;101226.28;5032173;28;20215;-50
2022/04/25 06:57:35;;;;;;;1.85;1.75;;;;;;;9.42;66.30;101226.50;5031941;28;20218;-48
2022/04/25 07:00:03;;;;;;;1.80;1.70;;;;;;;9.20;66.10;101234.22;5031705;28;20203;-48
2022/04/25 07:02:28;;;;;;;2.83;1.83;;;;;;;9.60;64.68;101225.09;5032746;28;20184;-51
2022/04/25 07:04:55;;;;;;;2.25;1.80;;;;;;;9.76;63.45;101226.44;5030830;28;20191;-50
2022/04/25 07:07:21;;;;;;;2.05;1.80;;;;;;;9.28;65.03;101229.53;5031942;28;20235;-49
2022/04/25 07:09:46;;;;;;;1.98;1.88;;;;;;;9.89;65.03;101227.84;5031708;28;20226;-50
2022/04/25 07:12:11;;;;;;;2.50;2.10;;;;;;;9.98;64.37;101232.06;5032427;28;20203;-48
2022/04/25 07:14:37;;;;;;;1.90;1.63;;;;;;;10.05;63.92;101227.41;5031551;28;20160;-48
2022/04/25 07:17:03;;;;;;;2.75;1.80;;;;;;;9.98;62.49;101236.53;5030760;28;20466;-48
2022/04/25 07:19:29;;;;;;;1.95;1.83;;;;;;;9.65;63.51;101237.44;5031681;28;20283;-49
2022/04/25 07:30:07;;;;;;;2.75;1.95;;;;;;;10.06;62.80;101239.88;5031965;28;20172;-48
2022/04/25 07:32:37;;;;;;;2.95;1.80;;;;;;;10.87;62.03;101228.44;5031449;28;20537;-51
2022/04/25 07:35:04;;;;;;;2.97;2.20;;;;;;;9.96;62.65;101231.22;5031885;28;20643;-48
2022/04/25 07:37:33;;;;;;;2.97;1.80;;;;;;;9.84;62.61;101237.81;5031312;28;20180;-51
2022/04/25 07:39:59;;;;;;;4.85;2.15;;;;;;;9.98;63.32;101241.91;5031250;28;20196;-49
2022/04/25 07:42:24;;;;;;;3.92;2.00;;;;;;;9.66;63.97;101241.00;5031552;28;20563;-49
2022/04/25 07:44:49;;;;;;;3.10;1.75;;;;;;;9.67;64.31;101250.78;5031404;28;20255;-50
2022/04/25 07:47:15;;;;;;;3.20;2.00;;;;;;;9.81;63.26;101240.56;5030710;28;20207;-48
2022/04/25 07:49:40;;;;;;;2.13;1.90;;;;;;;9.98;62.88;101250.78;5031158;28;20191;-47
2022/04/25 07:52:07;;;;;;;2.67;1.88;;;;;;;10.52;62.31;101251.91;5029551;28;20221;-48
2022/04/25 07:54:33;;;;;;;4.13;1.58;;;;;;;10.37;60.79;101237.16;5031593;28;20198;-48
2022/04/25 07:56:58;;;;;;;2.40;1.95;;;;;;;9.82;61.86;101255.72;5030701;28;20163;-50
2022/04/25 07:59:24;;;;;;;2.40;2.10;;;;;;;9.46;62.83;101245.09;5030851;28;20207;-47
2022/04/25 08:01:50;;;;;;;2.63;2.42;;;;;;;10.12;62.97;101263.75;5031216;28;20266;-46
2022/04/25 08:04:15;;;;;;;2.35;1.85;;;;;;;10.57;61.62;101249.94;5030700;28;20183;-47
2022/04/25 08:06:40;;;;;;;1.52;1.42;;;;;;;10.68;60.23;101263.00;5030898;28;20183;-49
2022/04/25 08:09:06;;;;;;;1.95;1.70;;;;;;;10.73;60.26;101247.63;5030950;28;20192;-50
2022/04/25 08:11:32;;;;;;;3.22;2.10;;;;;;;10.41;60.67;101241.50;5030909;28;20180;-47
2022/04/25 08:19:25;;;;;;;2.67;1.92;;;;;;;10.42;60.17;101263.81;5030460;28;20273;-47
2022/04/25 08:21:52;;;;;;;3.65;1.65;;;;;;;10.55;60.01;101251.78;5030894;28;20233;-48
2022/04/25 08:24:17;;;;;;;2.80;1.88;;;;;;;10.51;60.88;101256.34;5030408;28;20247;-47
2022/04/25 08:26:43;;;;;;;2.22;1.85;;;;;;;10.65;60.11;101260.44;5029964;28;20299;-48
2022/04/25 08:29:08;;;;;;;3.85;2.13;;;;;;;10.41;60.02;101254.03;5030589;28;20200;-49
2022/04/25 08:31:36;;;;;;;2.38;2.17;;;;;;;10.05;61.13;101264.88;5030692;28;20178;-46
2022/04/25 08:34:06;;;;;;;6.00;2.17;;;;;;;10.38;61.50;101252.31;5029495;28;20186;-46
2022/04/25 08:36:32;;;;;;;2.13;1.90;;;;;;;10.62;60.45;101256.03;5030187;28;20206;-45
2022/04/25 08:38:58;;;;;;;2.67;2.30;;;;;;;10.52;60.28;101266.16;5030515;28;20191;-47
2022/04/25 08:41:29;;;;;;;3.60;2.13;;;;;;;10.45;60.53;101263.72;5030311;28;20212;-48
2022/04/25 08:43:55;;;;;;;2.67;2.10;;;;;;;10.67;60.40;101271.94;5030577;28;20184;-49
2022/04/25 08:46:22;;;;;;;2.30;1.65;;;;;;;11.23;59.60;101274.59;5030079;28;20176;-51
2022/04/25 08:48:49;;;;;;;6.45;2.30;;;;;;;11.58;58.13;101260.91;5030028;28;20679;-48
2022/04/25 08:51:15;;;;;;;4.68;1.95;;;;;;;10.83;57.63;101273.22;5029997;28;20187;-47
2022/04/25 08:53:43;;;;;;;2.45;2.25;;;;;;;10.33;59.53;101277.50;5028626;28;20267;-49
2022/04/25 08:56:09;;;;;;;2.40;2.20;;;;;;;10.48;59.24;101272.53;5029448;28;20176;-48
2022/04/25 08:58:39;;;;;;;2.40;1.90;;;;;;;10.37;59.73;101277.34;5030209;28;20258;-47
2022/04/25 09:01:04;;;;;;;2.92;1.77;;;;;;;11.07;59.41;101274.22;5030257;28;20317;-47
2022/04/25 09:03:30;;;;;;;3.15;1.92;;;;;;;11.89;56.88;101282.16;5030341;28;20164;-45
2022/04/25 09:05:55;;;;;;;2.22;1.80;;;;;;;10.96;57.75;101287.13;5029970;28;20199;-46
2022/04/25 09:08:21;;;;;;;2.75;2.15;;;;;;;10.34;58.68;101293.50;5030692;28;20192;-46
2022/04/25 09:10:48;;;;;;;2.20;2.00;;;;;;;11.21;59.11;101278.25;5030675;28;20268;-46
2022/04/25 09:13:14;;;;;;;2.40;2.10;;;;;;;10.90;59.21;101290.88;5029676;28;20206;-47
2022/04/25 09:15:40;;;;;;;2.22;2.03;;;;;;;10.64;59.01;101286.31;5030155;28;20715;-48
2022/04/25 09:18:05;;;;;;;5.00;2.20;;;;;;;11.27;58.13;101286.97;5029959;28;20691;-45
2022/04/25 09:20:31;;;;;;;2.47;2.13;;;;;;;10.90;53.48;101298.03;5030112;28;20262;-48
2022/04/25 09:22:57;;;;;;;2.95;2.10;;;;;;;11.07;59.50;101300.19;5029626;28;20195;-47
2022/04/25 09:25:22;;;;;;;2.67;2.05;;;;;;;11.36;57.21;101284.91;5030345;28;20227;-44
2022/04/25 09:28:09;;;;;;;3.50;2.40;;;;;;;10.82;58.90;101290.25;5029487;28;20200;-47
2022/04/25 09:30:35;;;;;;;2.00;1.85;;;;;;;11.67;57.52;101282.03;5030311;28;20711;-49
2022/04/25 09:33:00;;;;;;;4.43;2.00;;;;;;;11.20;56.84;101289.94;5029892;28;20247;-46
2022/04/25 09:35:42;;;;;;;2.25;2.03;;;;;;;11.54;56.72;101287.84;5029950;28;20180;-47
2022/04/25 09:38:13;;;;;;;2.45;1.85;;;;;;;10.98;56.85;101297.81;5030008;28;20199;-46
2022/04/25 09:40:39;;;;;;;2.78;1.95;;;;;;;11.39;58.03;101300.91;5033800;28;20283;-46
2022/04/25 09:43:14;;;;;;;2.30;2.10;;;;;;;11.29;58.23;101305.72;5032401;28;20330;-48
2022/04/25 09:45:44;;;;;;;2.92;1.80;;;;;;;11.60;59.02;101310.03;5033142;28;20172;-47
2022/04/25 09:48:10;;;;;;;2.33;1.85;;;;;;;11.52;59.13;101305.81;5033874;28;20235;-45
2022/04/25 09:50:38;;;;;;;2.70;2.00;;;;;;;11.39;57.96;101299.13;5033450;28;20276;-46
2022/04/25 09:53:05;;;;;;;2.97;2.00;;;;;;;11.97;58.57;101304.25;5033216;28;20196;-47
2022/04/25 09:55:32;;;;;;;2.45;2.15;;;;;;;11.69;57.06;101294.47;5033554;28;20178;-46
2022/04/25 09:57:58;;;;;;;2.33;2.13;;;;;;;11.45;56.98;101312.28;5033238;28;20164;-46
2022/04/25 10:00:36;;;;;;;4.50;2.53;;;;;;;11.74;57.99;101316.66;5033108;28;20214;-45
2022/04/25 10:03:03;;;;;;;2.58;2.38;;;;;;;11.25;61.14;101312.09;5033324;28;20227;-46
2022/04/25 10:05:55;;;;;;;2.30;2.20;;;;;;;10.74;63.68;101334.31;5033309;28;20208;-46
2022/04/25 10:08:20;;;;;;;4.43;2.47;;;;;;;10.80;63.41;101326.06;5032136;28;20251;-46
2022/04/25 10:10:51;;;;;;;2.30;2.10;;;;;;;10.12;66.26;101328.03;5031517;28;20259;-48
2022/04/25 10:13:17;;;;;;;3.25;2.80;;;;;;;10.81;65.36;101330.50;5032034;28;20613;-47
2022/04/25 10:15:44;;;;;;;2.50;2.30;;;;;;;10.66;65.89;101323.81;5032694;28;20280;-45
2022/04/25 10:18:11;;;;;;;2.65;2.42;;;;;;;10.48;64.46;101320.75;5033013;28;20203;-46
2022/04/25 10:20:38;;;;;;;4.97;2.97;;;;;;;10.01;67.92;101333.69;5047783;28;20207;-47
2022/04/25 10:23:11;;;;;;;6.13;3.08;;;;;;;10.30;69.22;101335.59;5033292;28;20175;-48
2022/04/25 10:25:38;;;;;;;4.07;2.88;;;;;;;9.85;69.61;101337.72;5032899;28;20551;-49
2022/04/25 10:28:11;;;;;;;3.25;2.78;;;;;;;9.98;69.18;101332.91;5032678;28;20194;-48
2022/04/25 10:30:39;;;;;;;3.75;2.58;;;;;;;10.26;69.14;101339.22;5032786;28;20191;-48
2022/04/25 10:33:51;;;;;;;4.82;2.60;;;;;;;10.42;67.51;101336.13;5031781;28;20188;-46
2022/04/25 10:36:38;;;;;;;2.58;2.38;;;;;;;10.67;65.75;101336.25;5027113;28;20560;-49
2022/04/25 10:39:16;;;;;;;3.67;2.58;;;;;;;10.41;66.44;101332.59;5032561;28;20281;-47
2022/04/25 10:44:36;;;;;;;4.30;2.95;;;;;;;10.38;65.50;101343.38;5032506;28;20179;-49
2022/04/25 10:47:05;;;;;;;2.90;2.65;;;;;;;10.20;66.22;101336.72;5032195;28;20180;-47
2022/04/25 10:49:49;;;;;;;3.15;2.85;;;;;;;10.14;66.81;101339.56;5032084;28;20196;-46
2022/04/25 10:52:33;;;;;;;3.03;2.47;;;;;;;9.98;66.13;101338.25;5031617;28;20195;-50
2022/04/25 10:55:19;;;;;;;8.45;3.00;;;;;;;10.10;67.25;101349.50;5031196;28;20212;-50
2022/04/25 10:58:03;;;;;;;3.50;2.45;;;;;;;10.61;64.86;101340.03;5029951;28;20206;-45
2022/04/25 11:00:41;;;;;;;2.70;2.00;;;;;;;10.86;63.54;101350.00;5031178;28;20196;-51
2022/04/25 11:03:19;;;;;;;4.35;2.58;;;;;;;10.67;61.92;101345.22;5029807;28;20207;-47
2022/04/25 11:05:50;;;;;;;2.80;2.05;;;;;;;10.70;61.15;101338.88;5031068;28;20184;-47
2022/04/25 11:08:16;;;;;;;2.42;2.10;;;;;;;10.89;62.34;101341.88;5031432;28;20192;-48
2022/04/25 11:10:52;;;;;;;2.05;1.95;;;;;;;10.80;60.30;101344.81;5031119;28;20172;-51
2022/04/25 11:13:18;;;;;;;2.20;2.00;;;;;;;11.34;59.67;101347.53;5030987;28;20326;-49
2022/04/25 11:15:43;;;;;;;2.38;2.17;;;;;;;10.83;60.27;101350.09;5030631;28;20251;-48
2022/04/25 11:18:30;;;;;;;2.78;2.40;;;;;;;10.38;64.29;101348.72;5031112;28;20204;-48
2022/04/25 11:21:20;;;;;;;4.90;2.80;;;;;;;10.20;64.01;101349.25;5029378;28;20621;-47
2022/04/25 11:23:45;;;;;;;3.47;2.30;;;;;;;10.44;63.57;101345.88;5030691;28;20684;-47
2022/04/25 11:26:23;;;;;;;3.63;1.98;;;;;;;10.44;63.23;101347.69;5030364;28;20250;-48
2022/04/25 11:28:55;;;;;;;3.55;2.50;;;;;;;10.36;63.73;101347.03;5029583;28;20198;-49
2022/04/25 11:31:33;;;;;;;2.70;2.20;;;;;;;10.24;65.05;101346.44;5030793;28;20165;-48
2022/04/25 11:34:13;;;;;;;3.58;2.50;;;;;;;10.10;66.06;101344.16;5030671;28;20533;-49
2022/04/25 11:36:45;;;;;;;4.82;3.35;;;;;;;9.96;67.80;101356.16;5030410;28;20239;-47
2022/04/25 11:41:59;;;;;;;2.65;2.42;;;;;;;10.61;66.27;101353.44;5030629;28;20168;-48
2022/04/25 11:44:25;;;;;;;2.40;2.20;;;;;;;10.15;66.53;101344.03;5030636;28;20214;-50
2022/04/25 11:46:52;;;;;;;3.50;2.60;;;;;;;10.21;66.31;101341.19;5045412;28;20278;-50
2022/04/25 11:49:39;;;;;;;6.78;2.30;;;;;;;10.82;63.98;101342.97;5029214;28;20203;-48
2022/04/25 11:52:05;;;;;;;2.15;2.00;;;;;;;11.07;61.22;101348.44;5025773;28;128365;-50
2022/04/25 11:54:32;;;;;;;2.95;2.10;;;;;;;10.23;65.35;101346.47;5030444;28;20188;-49
2022/04/25 11:57:02;;;;;;;4.50;2.40;;;;;;;9.97;66.79;101360.56;5030254;28;20599;-47
2022/04/25 11:59:28;;;;;;;3.42;2.63;;;;;;;10.11;69.11;101350.38;5031458;28;20247;-48
2022/04/25 12:01:53;;;;;;;2.80;2.45;;;;;;;10.08;67.29;101355.84;5030944;28;20184;-50
2022/04/25 12:04:30;;;;;;;2.60;2.40;;;;;;;10.16;67.64;101351.13;5031327;28;20666;-48